sensor_id;sensor_type;location;lat;lon;timestamp;P1;durP1;ratioP1;P2;durP2;ratioP2
315;SDS011;14128;48.686;9.738;2023-09-19T00:00:41;1.70;;;0.57;;
315;SDS011;14128;48.686;9.738;2023-09-19T00:03:09;1.10;;;0.40;;
315;SDS011;14128;48.686;9.738;2023-09-19T00:05:38;1.20;;;0.70;;
315;SDS011;14128;48.686;9.738;2023-09-19T00:08:09;1.33;;;0.60;;
315;SDS011;14128;48.686;9.738;2023-09-19T00:10:38;4.10;;;0.97;;
315;SDS011;14128;48.686;9.738;2023-09-19T00:13:06;2.30;;;0.60;;
315;SDS011;14128;48.686;9.738;2023-09-19T00:15:36;0.70;;;0.53;;
315;SDS011;14128;48.686;9.738;2023-09-19T00:18:03;1.50;;;0.33;;
315;SDS011;14128;48.686;9.738;2023-09-19T00:20:31;1.40;;;0.37;;
315;SDS011;14128;48.686;9.738;2023-09-19T00:23:01;0.83;;;0.40;;
315;SDS011;14128;48.686;9.738;2023-09-19T00:25:33;1.17;;;0.50;;
315;SDS011;14128;48.686;9.738;2023-09-19T00:28:02;0.57;;;0.30;;
315;SDS011;14128;48.686;9.738;2023-09-19T00:30:29;0.87;;;0.60;;
315;SDS011;14128;48.686;9.738;2023-09-19T00:32:56;0.67;;;0.30;;
315;SDS011;14128;48.686;9.738;2023-09-19T00:35:23;0.73;;;0.30;;
315;SDS011;14128;48.686;9.738;2023-09-19T00:37:50;0.60;;;0.30;;
315;SDS011;14128;48.686;9.738;2023-09-19T00:40:19;0.47;;;0.30;;
315;SDS011;14128;48.686;9.738;2023-09-19T00:42:46;0.60;;;0.50;;
315;SDS011;14128;48.686;9.738;2023-09-19T00:45:15;0.70;;;0.40;;
315;SDS011;14128;48.686;9.738;2023-09-19T00:47:43;1.23;;;0.50;;
315;SDS011;14128;48.686;9.738;2023-09-19T00:50:13;1.90;;;0.50;;
315;SDS011;14128;48.686;9.738;2023-09-19T00:52:43;1.50;;;0.87;;
315;SDS011;14128;48.686;9.738;2023-09-19T00:55:10;1.37;;;0.50;;
315;SDS011;14128;48.686;9.738;2023-09-19T00:57:39;2.60;;;0.50;;
315;SDS011;14128;48.686;9.738;2023-09-19T01:00:07;1.50;;;0.90;;
315;SDS011;14128;48.686;9.738;2023-09-19T01:02:40;0.90;;;0.60;;
315;SDS011;14128;48.686;9.738;2023-09-19T01:05:07;1.47;;;0.90;;
315;SDS011;14128;48.686;9.738;2023-09-19T01:07:35;1.20;;;0.60;;
315;SDS011;14128;48.686;9.738;2023-09-19T01:10:06;3.63;;;2.37;;
315;SDS011;14128;48.686;9.738;2023-09-19T01:12:38;1.63;;;0.67;;
315;SDS011;14128;48.686;9.738;2023-09-19T01:15:21;3.50;;;2.30;;
315;SDS011;14128;48.686;9.738;2023-09-19T01:18:00;8.27;;;0.77;;
315;SDS011;14128;48.686;9.738;2023-09-19T01:20:37;0.57;;;0.50;;
315;SDS011;14128;48.686;9.738;2023-09-19T01:23:11;1.53;;;0.50;;
315;SDS011;14128;48.686;9.738;2023-09-19T01:28:39;0.50;;;0.30;;
315;SDS011;14128;48.686;9.738;2023-09-19T01:31:20;0.47;;;0.37;;
315;SDS011;14128;48.686;9.738;2023-09-19T01:33:55;1.63;;;0.77;;
315;SDS011;14128;48.686;9.738;2023-09-19T01:36:24;1.03;;;0.40;;
315;SDS011;14128;48.686;9.738;2023-09-19T01:38:52;0.40;;;0.20;;
315;SDS011;14128;48.686;9.738;2023-09-19T01:41:21;0.50;;;0.30;;
315;SDS011;14128;48.686;9.738;2023-09-19T01:43:56;1.00;;;0.50;;
315;SDS011;14128;48.686;9.738;2023-09-19T01:46:28;3.07;;;0.80;;
315;SDS011;14128;48.686;9.738;2023-09-19T01:49:03;3.27;;;0.70;;
315;SDS011;14128;48.686;9.738;2023-09-19T01:51:42;0.60;;;0.30;;
315;SDS011;14128;48.686;9.738;2023-09-19T01:54:12;1.57;;;0.73;;
315;SDS011;14128;48.686;9.738;2023-09-19T01:56:45;1.53;;;0.53;;
315;SDS011;14128;48.686;9.738;2023-09-19T01:59:17;0.90;;;0.60;;
315;SDS011;14128;48.686;9.738;2023-09-19T02:01:53;1.63;;;0.50;;
315;SDS011;14128;48.686;9.738;2023-09-19T02:04:21;0.53;;;0.40;;
315;SDS011;14128;48.686;9.738;2023-09-19T02:06:48;1.23;;;0.70;;
315;SDS011;14128;48.686;9.738;2023-09-19T02:09:16;0.97;;;0.40;;
315;SDS011;14128;48.686;9.738;2023-09-19T02:11:43;0.60;;;0.20;;
315;SDS011;14128;48.686;9.738;2023-09-19T02:14:11;0.83;;;0.83;;
315;SDS011;14128;48.686;9.738;2023-09-19T02:16:39;0.70;;;0.50;;
315;SDS011;14128;48.686;9.738;2023-09-19T02:19:08;3.30;;;0.60;;
315;SDS011;14128;48.686;9.738;2023-09-19T02:21:35;3.37;;;0.80;;
315;SDS011;14128;48.686;9.738;2023-09-19T02:24:01;2.20;;;0.47;;
315;SDS011;14128;48.686;9.738;2023-09-19T02:26:28;1.03;;;0.80;;
315;SDS011;14128;48.686;9.738;2023-09-19T02:28:56;0.50;;;0.50;;
315;SDS011;14128;48.686;9.738;2023-09-19T02:31:22;2.00;;;0.30;;
315;SDS011;14128;48.686;9.738;2023-09-19T02:33:49;0.70;;;0.40;;
315;SDS011;14128;48.686;9.738;2023-09-19T02:36:17;0.67;;;0.40;;
315;SDS011;14128;48.686;9.738;2023-09-19T02:38:44;1.27;;;0.40;;
315;SDS011;14128;48.686;9.738;2023-09-19T02:41:11;1.20;;;0.77;;
315;SDS011;14128;48.686;9.738;2023-09-19T02:43:38;2.07;;;0.40;;
315;SDS011;14128;48.686;9.738;2023-09-19T02:46:05;1.00;;;0.90;;
315;SDS011;14128;48.686;9.738;2023-09-19T02:48:32;1.27;;;0.60;;
315;SDS011;14128;48.686;9.738;2023-09-19T02:51:01;1.60;;;0.53;;
315;SDS011;14128;48.686;9.738;2023-09-19T02:53:30;0.50;;;0.40;;
315;SDS011;14128;48.686;9.738;2023-09-19T02:55:57;0.60;;;0.30;;
315;SDS011;14128;48.686;9.738;2023-09-19T02:58:24;0.87;;;0.47;;
315;SDS011;14128;48.686;9.738;2023-09-19T03:00:53;0.70;;;0.50;;
315;SDS011;14128;48.686;9.738;2023-09-19T03:03:20;1.63;;;0.40;;
315;SDS011;14128;48.686;9.738;2023-09-19T03:05:48;1.70;;;0.60;;
315;SDS011;14128;48.686;9.738;2023-09-19T03:08:16;0.60;;;0.40;;
315;SDS011;14128;48.686;9.738;2023-09-19T03:10:47;1.07;;;0.77;;
315;SDS011;14128;48.686;9.738;2023-09-19T03:13:14;1.47;;;0.50;;
315;SDS011;14128;48.686;9.738;2023-09-19T03:15:41;2.60;;;0.90;;
315;SDS011;14128;48.686;9.738;2023-09-19T03:18:09;1.10;;;0.47;;
315;SDS011;14128;48.686;9.738;2023-09-19T03:20:36;1.73;;;0.60;;
315;SDS011;14128;48.686;9.738;2023-09-19T03:23:03;0.90;;;0.53;;
315;SDS011;14128;48.686;9.738;2023-09-19T03:25:31;0.70;;;0.50;;
315;SDS011;14128;48.686;9.738;2023-09-19T03:28:02;1.33;;;0.70;;
315;SDS011;14128;48.686;9.738;2023-09-19T03:30:31;1.30;;;0.70;;
315;SDS011;14128;48.686;9.738;2023-09-19T03:32:58;1.60;;;1.53;;
315;SDS011;14128;48.686;9.738;2023-09-19T03:35:26;0.50;;;0.40;;
315;SDS011;14128;48.686;9.738;2023-09-19T03:37:53;1.80;;;0.60;;
315;SDS011;14128;48.686;9.738;2023-09-19T03:40:20;0.80;;;0.70;;
315;SDS011;14128;48.686;9.738;2023-09-19T03:42:48;1.70;;;0.67;;
315;SDS011;14128;48.686;9.738;2023-09-19T03:45:16;1.77;;;0.57;;
315;SDS011;14128;48.686;9.738;2023-09-19T03:47:43;2.37;;;0.80;;
315;SDS011;14128;48.686;9.738;2023-09-19T03:50:12;4.93;;;1.83;;
315;SDS011;14128;48.686;9.738;2023-09-19T03:52:40;1.83;;;1.30;;
315;SDS011;14128;48.686;9.738;2023-09-19T03:55:07;5.83;;;2.27;;
315;SDS011;14128;48.686;9.738;2023-09-19T03:57:34;8.67;;;4.80;;
315;SDS011;14128;48.686;9.738;2023-09-19T04:00:01;7.23;;;4.40;;
315;SDS011;14128;48.686;9.738;2023-09-19T04:02:31;6.50;;;2.80;;
315;SDS011;14128;48.686;9.738;2023-09-19T04:04:58;6.93;;;3.43;;
315;SDS011;14128;48.686;9.738;2023-09-19T04:07:25;7.40;;;3.37;;
315;SDS011;14128;48.686;9.738;2023-09-19T04:09:54;6.60;;;2.87;;
315;SDS011;14128;48.686;9.738;2023-09-19T04:12:20;4.80;;;3.40;;
315;SDS011;14128;48.686;9.738;2023-09-19T04:14:47;6.20;;;3.00;;
315;SDS011;14128;48.686;9.738;2023-09-19T04:17:15;4.70;;;2.33;;
315;SDS011;14128;48.686;9.738;2023-09-19T04:19:43;5.50;;;1.70;;
315;SDS011;14128;48.686;9.738;2023-09-19T04:22:10;4.20;;;1.80;;
315;SDS011;14128;48.686;9.738;2023-09-19T04:24:38;4.40;;;2.00;;
315;SDS011;14128;48.686;9.738;2023-09-19T04:27:05;3.20;;;1.90;;
315;SDS011;14128;48.686;9.738;2023-09-19T04:29:32;3.00;;;1.70;;
315;SDS011;14128;48.686;9.738;2023-09-19T04:32:00;3.87;;;1.60;;
315;SDS011;14128;48.686;9.738;2023-09-19T04:34:29;1.80;;;1.30;;
315;SDS011;14128;48.686;9.738;2023-09-19T04:36:57;2.50;;;1.30;;
315;SDS011;14128;48.686;9.738;2023-09-19T04:39:25;1.53;;;1.30;;
315;SDS011;14128;48.686;9.738;2023-09-19T04:41:52;1.50;;;1.20;;
315;SDS011;14128;48.686;9.738;2023-09-19T04:44:19;2.53;;;1.40;;
315;SDS011;14128;48.686;9.738;2023-09-19T04:46:46;2.60;;;1.83;;
315;SDS011;14128;48.686;9.738;2023-09-19T04:49:13;1.87;;;0.80;;
315;SDS011;14128;48.686;9.738;2023-09-19T04:51:40;2.97;;;1.50;;
315;SDS011;14128;48.686;9.738;2023-09-19T04:54:08;4.63;;;1.30;;
315;SDS011;14128;48.686;9.738;2023-09-19T04:56:35;1.33;;;0.57;;
315;SDS011;14128;48.686;9.738;2023-09-19T04:59:05;2.20;;;0.70;;
315;SDS011;14128;48.686;9.738;2023-09-19T05:01:32;1.83;;;1.23;;
315;SDS011;14128;48.686;9.738;2023-09-19T05:03:59;1.47;;;1.00;;
315;SDS011;14128;48.686;9.738;2023-09-19T05:06:25;3.10;;;0.83;;
315;SDS011;14128;48.686;9.738;2023-09-19T05:08:52;2.37;;;1.40;;
315;SDS011;14128;48.686;9.738;2023-09-19T05:11:21;2.97;;;1.10;;
315;SDS011;14128;48.686;9.738;2023-09-19T05:13:48;2.43;;;1.00;;
315;SDS011;14128;48.686;9.738;2023-09-19T05:16:15;2.03;;;1.00;;
315;SDS011;14128;48.686;9.738;2023-09-19T05:18:42;1.57;;;0.90;;
315;SDS011;14128;48.686;9.738;2023-09-19T05:21:09;1.17;;;0.97;;
315;SDS011;14128;48.686;9.738;2023-09-19T05:23:37;3.27;;;1.60;;
315;SDS011;14128;48.686;9.738;2023-09-19T05:26:04;2.30;;;1.60;;
315;SDS011;14128;48.686;9.738;2023-09-19T05:28:32;2.87;;;1.20;;
315;SDS011;14128;48.686;9.738;2023-09-19T05:31:00;2.10;;;1.63;;
315;SDS011;14128;48.686;9.738;2023-09-19T05:33:27;1.80;;;1.13;;
315;SDS011;14128;48.686;9.738;2023-09-19T05:35:55;1.93;;;1.10;;
315;SDS011;14128;48.686;9.738;2023-09-19T05:38:22;3.33;;;1.10;;
315;SDS011;14128;48.686;9.738;2023-09-19T05:40:51;3.00;;;1.20;;
315;SDS011;14128;48.686;9.738;2023-09-19T05:43:19;2.43;;;1.37;;
315;SDS011;14128;48.686;9.738;2023-09-19T05:45:47;2.20;;;1.20;;
315;SDS011;14128;48.686;9.738;2023-09-19T05:48:17;3.57;;;2.17;;
315;SDS011;14128;48.686;9.738;2023-09-19T05:50:46;3.40;;;1.80;;
315;SDS011;14128;48.686;9.738;2023-09-19T05:53:14;3.33;;;1.73;;
315;SDS011;14128;48.686;9.738;2023-09-19T05:55:41;3.50;;;1.73;;
315;SDS011;14128;48.686;9.738;2023-09-19T05:58:08;3.80;;;2.20;;
315;SDS011;14128;48.686;9.738;2023-09-19T06:00:35;2.00;;;1.80;;
315;SDS011;14128;48.686;9.738;2023-09-19T06:03:03;4.30;;;1.33;;
315;SDS011;14128;48.686;9.738;2023-09-19T06:05:30;2.30;;;1.50;;
315;SDS011;14128;48.686;9.738;2023-09-19T06:07:57;2.60;;;1.13;;
315;SDS011;14128;48.686;9.738;2023-09-19T06:10:25;1.63;;;1.40;;
315;SDS011;14128;48.686;9.738;2023-09-19T06:12:52;2.07;;;1.93;;
315;SDS011;14128;48.686;9.738;2023-09-19T06:15:20;2.13;;;1.63;;
315;SDS011;14128;48.686;9.738;2023-09-19T06:17:48;2.50;;;1.50;;
315;SDS011;14128;48.686;9.738;2023-09-19T06:20:17;1.57;;;1.47;;
315;SDS011;14128;48.686;9.738;2023-09-19T06:22:45;2.30;;;1.80;;
315;SDS011;14128;48.686;9.738;2023-09-19T06:25:13;2.00;;;1.70;;
315;SDS011;14128;48.686;9.738;2023-09-19T06:27:44;1.37;;;1.37;;
315;SDS011;14128;48.686;9.738;2023-09-19T06:30:11;4.77;;;1.60;;
315;SDS011;14128;48.686;9.738;2023-09-19T06:32:39;5.60;;;1.47;;
315;SDS011;14128;48.686;9.738;2023-09-19T06:35:09;1.13;;;0.87;;
315;SDS011;14128;48.686;9.738;2023-09-19T06:37:37;1.23;;;0.73;;
315;SDS011;14128;48.686;9.738;2023-09-19T06:40:06;5.40;;;1.50;;
315;SDS011;14128;48.686;9.738;2023-09-19T06:42:38;1.57;;;0.83;;
315;SDS011;14128;48.686;9.738;2023-09-19T06:45:06;2.40;;;1.33;;
315;SDS011;14128;48.686;9.738;2023-09-19T06:47:36;2.30;;;0.90;;
315;SDS011;14128;48.686;9.738;2023-09-19T06:50:03;1.50;;;0.70;;
315;SDS011;14128;48.686;9.738;2023-09-19T06:52:30;6.13;;;1.00;;
315;SDS011;14128;48.686;9.738;2023-09-19T06:54:59;2.00;;;1.40;;
315;SDS011;14128;48.686;9.738;2023-09-19T06:57:31;1.73;;;1.43;;
315;SDS011;14128;48.686;9.738;2023-09-19T06:59:58;2.50;;;1.07;;
315;SDS011;14128;48.686;9.738;2023-09-19T07:02:26;1.27;;;1.00;;
315;SDS011;14128;48.686;9.738;2023-09-19T07:04:53;1.40;;;0.80;;
315;SDS011;14128;48.686;9.738;2023-09-19T07:07:20;1.90;;;1.00;;
315;SDS011;14128;48.686;9.738;2023-09-19T07:09:47;1.73;;;1.00;;
315;SDS011;14128;48.686;9.738;2023-09-19T07:12:15;2.03;;;1.10;;
315;SDS011;14128;48.686;9.738;2023-09-19T07:14:43;4.30;;;0.90;;
315;SDS011;14128;48.686;9.738;2023-09-19T07:17:10;3.10;;;1.40;;
315;SDS011;14128;48.686;9.738;2023-09-19T07:19:36;2.43;;;1.33;;
315;SDS011;14128;48.686;9.738;2023-09-19T07:22:03;1.40;;;0.83;;
315;SDS011;14128;48.686;9.738;2023-09-19T07:24:33;2.73;;;1.03;;
315;SDS011;14128;48.686;9.738;2023-09-19T07:27:01;2.20;;;1.10;;
315;SDS011;14128;48.686;9.738;2023-09-19T07:29:31;1.50;;;1.23;;
315;SDS011;14128;48.686;9.738;2023-09-19T07:31:58;2.73;;;1.50;;
315;SDS011;14128;48.686;9.738;2023-09-19T07:34:25;2.20;;;1.57;;
315;SDS011;14128;48.686;9.738;2023-09-19T07:36:52;2.23;;;1.30;;
315;SDS011;14128;48.686;9.738;2023-09-19T07:39:19;3.93;;;1.83;;
315;SDS011;14128;48.686;9.738;2023-09-19T07:41:45;2.13;;;1.57;;
315;SDS011;14128;48.686;9.738;2023-09-19T07:44:13;3.23;;;1.60;;
315;SDS011;14128;48.686;9.738;2023-09-19T07:46:42;3.33;;;2.33;;
315;SDS011;14128;48.686;9.738;2023-09-19T07:49:09;2.93;;;2.17;;
315;SDS011;14128;48.686;9.738;2023-09-19T07:51:36;2.70;;;2.53;;
315;SDS011;14128;48.686;9.738;2023-09-19T07:54:03;3.50;;;2.47;;
315;SDS011;14128;48.686;9.738;2023-09-19T07:56:31;3.43;;;2.30;;
315;SDS011;14128;48.686;9.738;2023-09-19T07:58:59;5.07;;;3.10;;
315;SDS011;14128;48.686;9.738;2023-09-19T08:01:25;3.93;;;2.53;;
315;SDS011;14128;48.686;9.738;2023-09-19T08:03:54;3.63;;;2.07;;
315;SDS011;14128;48.686;9.738;2023-09-19T08:06:21;2.63;;;2.43;;
315;SDS011;14128;48.686;9.738;2023-09-19T08:08:50;3.47;;;3.30;;
315;SDS011;14128;48.686;9.738;2023-09-19T08:11:18;2.90;;;2.70;;
315;SDS011;14128;48.686;9.738;2023-09-19T08:13:46;5.70;;;4.57;;
315;SDS011;14128;48.686;9.738;2023-09-19T08:16:14;4.80;;;4.27;;
315;SDS011;14128;48.686;9.738;2023-09-19T08:18:43;4.47;;;4.10;;
315;SDS011;14128;48.686;9.738;2023-09-19T08:21:14;4.60;;;4.30;;
315;SDS011;14128;48.686;9.738;2023-09-19T08:23:41;4.67;;;4.37;;
315;SDS011;14128;48.686;9.738;2023-09-19T08:26:08;5.83;;;4.30;;
315;SDS011;14128;48.686;9.738;2023-09-19T08:28:35;3.90;;;3.70;;
315;SDS011;14128;48.686;9.738;2023-09-19T08:31:02;4.60;;;3.63;;
315;SDS011;14128;48.686;9.738;2023-09-19T08:33:31;6.20;;;4.40;;
315;SDS011;14128;48.686;9.738;2023-09-19T08:35:58;3.40;;;3.17;;
315;SDS011;14128;48.686;9.738;2023-09-19T08:38:26;5.10;;;2.80;;
315;SDS011;14128;48.686;9.738;2023-09-19T08:40:56;3.10;;;2.53;;
315;SDS011;14128;48.686;9.738;2023-09-19T08:43:24;3.00;;;2.80;;
315;SDS011;14128;48.686;9.738;2023-09-19T08:45:52;3.07;;;2.63;;
315;SDS011;14128;48.686;9.738;2023-09-19T08:48:25;2.63;;;2.13;;
315;SDS011;14128;48.686;9.738;2023-09-19T08:50:56;4.73;;;2.73;;
315;SDS011;14128;48.686;9.738;2023-09-19T08:53:31;3.37;;;2.60;;
315;SDS011;14128;48.686;9.738;2023-09-19T08:56:05;3.20;;;2.00;;
315;SDS011;14128;48.686;9.738;2023-09-19T08:58:38;2.83;;;2.40;;
315;SDS011;14128;48.686;9.738;2023-09-19T09:01:09;1.93;;;1.40;;
315;SDS011;14128;48.686;9.738;2023-09-19T09:03:39;3.13;;;1.83;;
315;SDS011;14128;48.686;9.738;2023-09-19T09:06:11;2.50;;;1.80;;
315;SDS011;14128;48.686;9.738;2023-09-19T09:08:42;3.33;;;1.53;;
315;SDS011;14128;48.686;9.738;2023-09-19T09:11:09;1.50;;;1.47;;
315;SDS011;14128;48.686;9.738;2023-09-19T09:13:37;1.57;;;1.40;;
315;SDS011;14128;48.686;9.738;2023-09-19T09:16:06;0.83;;;0.80;;
315;SDS011;14128;48.686;9.738;2023-09-19T09:18:33;3.17;;;1.27;;
315;SDS011;14128;48.686;9.738;2023-09-19T09:21:00;1.13;;;0.80;;
315;SDS011;14128;48.686;9.738;2023-09-19T09:23:29;3.50;;;1.40;;
315;SDS011;14128;48.686;9.738;2023-09-19T09:25:58;2.87;;;1.37;;
315;SDS011;14128;48.686;9.738;2023-09-19T09:28:28;2.50;;;1.30;;
315;SDS011;14128;48.686;9.738;2023-09-19T09:30:55;1.77;;;1.03;;
315;SDS011;14128;48.686;9.738;2023-09-19T09:33:24;2.30;;;0.93;;
315;SDS011;14128;48.686;9.738;2023-09-19T09:35:52;3.43;;;1.33;;
315;SDS011;14128;48.686;9.738;2023-09-19T09:38:22;3.30;;;1.13;;
315;SDS011;14128;48.686;9.738;2023-09-19T09:40:53;1.50;;;1.10;;
315;SDS011;14128;48.686;9.738;2023-09-19T09:43:27;2.70;;;1.10;;
315;SDS011;14128;48.686;9.738;2023-09-19T09:46:06;1.20;;;1.20;;
315;SDS011;14128;48.686;9.738;2023-09-19T09:49:05;2.10;;;1.37;;
315;SDS011;14128;48.686;9.738;2023-09-19T09:51:41;2.00;;;1.10;;
315;SDS011;14128;48.686;9.738;2023-09-19T09:54:12;1.67;;;1.27;;
315;SDS011;14128;48.686;9.738;2023-09-19T09:56:53;2.00;;;1.20;;
315;SDS011;14128;48.686;9.738;2023-09-19T09:59:34;1.43;;;0.77;;
315;SDS011;14128;48.686;9.738;2023-09-19T10:02:12;3.63;;;1.50;;
315;SDS011;14128;48.686;9.738;2023-09-19T10:04:45;1.60;;;0.97;;
315;SDS011;14128;48.686;9.738;2023-09-19T10:07:24;1.17;;;0.93;;
315;SDS011;14128;48.686;9.738;2023-09-19T10:09:52;6.23;;;0.80;;
315;SDS011;14128;48.686;9.738;2023-09-19T10:12:24;1.57;;;0.83;;
315;SDS011;14128;48.686;9.738;2023-09-19T10:14:55;5.90;;;1.43;;
315;SDS011;14128;48.686;9.738;2023-09-19T10:17:26;2.60;;;0.90;;
315;SDS011;14128;48.686;9.738;2023-09-19T10:19:57;2.70;;;0.90;;
315;SDS011;14128;48.686;9.738;2023-09-19T10:22:26;1.97;;;0.80;;
315;SDS011;14128;48.686;9.738;2023-09-19T10:24:56;2.47;;;1.00;;
315;SDS011;14128;48.686;9.738;2023-09-19T10:27:25;4.13;;;0.87;;
315;SDS011;14128;48.686;9.738;2023-09-19T10:29:56;3.50;;;0.90;;
315;SDS011;14128;48.686;9.738;2023-09-19T10:32:24;2.50;;;1.00;;
315;SDS011;14128;48.686;9.738;2023-09-19T10:34:53;2.73;;;0.60;;
315;SDS011;14128;48.686;9.738;2023-09-19T10:37:21;4.03;;;0.90;;
315;SDS011;14128;48.686;9.738;2023-09-19T10:39:52;1.87;;;0.83;;
315;SDS011;14128;48.686;9.738;2023-09-19T10:42:22;4.30;;;0.70;;
315;SDS011;14128;48.686;9.738;2023-09-19T10:44:55;1.10;;;0.77;;
315;SDS011;14128;48.686;9.738;2023-09-19T10:47:26;2.10;;;0.90;;
315;SDS011;14128;48.686;9.738;2023-09-19T10:49:53;3.13;;;0.83;;
315;SDS011;14128;48.686;9.738;2023-09-19T10:52:20;1.77;;;0.90;;
315;SDS011;14128;48.686;9.738;2023-09-19T10:54:51;2.03;;;0.83;;
315;SDS011;14128;48.686;9.738;2023-09-19T10:57:23;2.97;;;1.00;;
315;SDS011;14128;48.686;9.738;2023-09-19T11:00:04;1.53;;;0.40;;
315;SDS011;14128;48.686;9.738;2023-09-19T11:06:00;1.43;;;0.97;;
315;SDS011;14128;48.686;9.738;2023-09-19T11:08:46;2.60;;;0.60;;
315;SDS011;14128;48.686;9.738;2023-09-19T11:14:14;2.27;;;0.80;;
315;SDS011;14128;48.686;9.738;2023-09-19T11:23:19;1.47;;;0.70;;
315;SDS011;14128;48.686;9.738;2023-09-19T11:25:52;3.70;;;0.90;;
315;SDS011;14128;48.686;9.738;2023-09-19T11:28:32;2.23;;;0.90;;
315;SDS011;14128;48.686;9.738;2023-09-19T11:34:39;1.73;;;0.83;;
315;SDS011;14128;48.686;9.738;2023-09-19T11:40:29;1.13;;;0.57;;
315;SDS011;14128;48.686;9.738;2023-09-19T11:42:55;3.07;;;0.97;;
315;SDS011;14128;48.686;9.738;2023-09-19T11:48:27;1.83;;;0.70;;
315;SDS011;14128;48.686;9.738;2023-09-19T11:50:55;2.47;;;1.03;;
315;SDS011;14128;48.686;9.738;2023-09-19T11:53:24;1.80;;;0.70;;
315;SDS011;14128;48.686;9.738;2023-09-19T11:56:04;1.70;;;0.67;;
315;SDS011;14128;48.686;9.738;2023-09-19T11:58:35;1.60;;;1.20;;
315;SDS011;14128;48.686;9.738;2023-09-19T12:01:04;2.87;;;0.60;;
315;SDS011;14128;48.686;9.738;2023-09-19T12:03:38;3.33;;;0.93;;
315;SDS011;14128;48.686;9.738;2023-09-19T12:06:13;4.10;;;0.87;;
315;SDS011;14128;48.686;9.738;2023-09-19T12:08:40;0.77;;;0.60;;
315;SDS011;14128;48.686;9.738;2023-09-19T12:11:13;1.30;;;0.77;;
315;SDS011;14128;48.686;9.738;2023-09-19T12:13:45;1.00;;;0.60;;
315;SDS011;14128;48.686;9.738;2023-09-19T12:16:14;1.43;;;0.97;;
315;SDS011;14128;48.686;9.738;2023-09-19T12:18:42;1.93;;;0.70;;
315;SDS011;14128;48.686;9.738;2023-09-19T12:21:21;1.67;;;0.50;;
315;SDS011;14128;48.686;9.738;2023-09-19T12:23:56;3.13;;;0.70;;
315;SDS011;14128;48.686;9.738;2023-09-19T12:26:25;4.20;;;1.13;;
315;SDS011;14128;48.686;9.738;2023-09-19T12:28:53;1.67;;;0.90;;
315;SDS011;14128;48.686;9.738;2023-09-19T12:31:21;3.20;;;1.63;;
315;SDS011;14128;48.686;9.738;2023-09-19T12:33:52;2.63;;;0.63;;
315;SDS011;14128;48.686;9.738;2023-09-19T12:36:20;3.03;;;0.53;;
315;SDS011;14128;48.686;9.738;2023-09-19T12:38:50;2.90;;;0.87;;
315;SDS011;14128;48.686;9.738;2023-09-19T12:41:20;2.00;;;1.30;;
315;SDS011;14128;48.686;9.738;2023-09-19T12:43:49;1.07;;;0.53;;
315;SDS011;14128;48.686;9.738;2023-09-19T12:46:19;0.70;;;0.40;;
315;SDS011;14128;48.686;9.738;2023-09-19T12:48:51;2.10;;;0.70;;
315;SDS011;14128;48.686;9.738;2023-09-19T12:51:42;3.10;;;1.10;;
315;SDS011;14128;48.686;9.738;2023-09-19T12:54:09;1.10;;;0.57;;
315;SDS011;14128;48.686;9.738;2023-09-19T12:56:39;4.90;;;0.70;;
315;SDS011;14128;48.686;9.738;2023-09-19T12:59:11;1.67;;;0.73;;
315;SDS011;14128;48.686;9.738;2023-09-19T13:01:39;1.73;;;0.50;;
315;SDS011;14128;48.686;9.738;2023-09-19T13:04:14;2.10;;;0.70;;
315;SDS011;14128;48.686;9.738;2023-09-19T13:06:44;1.53;;;0.90;;
315;SDS011;14128;48.686;9.738;2023-09-19T13:09:13;1.00;;;0.90;;
315;SDS011;14128;48.686;9.738;2023-09-19T13:11:41;2.53;;;0.60;;
315;SDS011;14128;48.686;9.738;2023-09-19T13:14:14;3.03;;;0.50;;
315;SDS011;14128;48.686;9.738;2023-09-19T13:16:53;1.63;;;0.80;;
315;SDS011;14128;48.686;9.738;2023-09-19T13:19:34;1.97;;;1.00;;
315;SDS011;14128;48.686;9.738;2023-09-19T13:22:06;1.60;;;0.50;;
315;SDS011;14128;48.686;9.738;2023-09-19T13:25:07;2.67;;;0.97;;
315;SDS011;14128;48.686;9.738;2023-09-19T13:27:38;1.77;;;0.63;;
315;SDS011;14128;48.686;9.738;2023-09-19T13:30:08;1.77;;;0.83;;
315;SDS011;14128;48.686;9.738;2023-09-19T13:32:35;1.80;;;0.67;;
315;SDS011;14128;48.686;9.738;2023-09-19T13:35:04;0.60;;;0.30;;
315;SDS011;14128;48.686;9.738;2023-09-19T13:37:34;1.00;;;0.60;;
315;SDS011;14128;48.686;9.738;2023-09-19T13:40:03;2.10;;;0.73;;
315;SDS011;14128;48.686;9.738;2023-09-19T13:42:31;0.63;;;0.50;;
315;SDS011;14128;48.686;9.738;2023-09-19T13:44:58;0.93;;;0.43;;
315;SDS011;14128;48.686;9.738;2023-09-19T13:47:26;0.67;;;0.50;;
315;SDS011;14128;48.686;9.738;2023-09-19T13:49:53;0.80;;;0.40;;
315;SDS011;14128;48.686;9.738;2023-09-19T13:52:20;0.80;;;0.47;;
315;SDS011;14128;48.686;9.738;2023-09-19T13:54:48;3.57;;;1.40;;
315;SDS011;14128;48.686;9.738;2023-09-19T13:57:16;1.50;;;1.00;;
315;SDS011;14128;48.686;9.738;2023-09-19T13:59:43;4.23;;;0.70;;
315;SDS011;14128;48.686;9.738;2023-09-19T14:02:10;5.80;;;0.93;;
315;SDS011;14128;48.686;9.738;2023-09-19T14:04:40;1.50;;;0.80;;
315;SDS011;14128;48.686;9.738;2023-09-19T14:07:07;1.00;;;0.57;;
315;SDS011;14128;48.686;9.738;2023-09-19T14:09:34;1.97;;;0.60;;
315;SDS011;14128;48.686;9.738;2023-09-19T14:12:01;1.27;;;0.80;;
315;SDS011;14128;48.686;9.738;2023-09-19T14:14:28;1.07;;;0.63;;
315;SDS011;14128;48.686;9.738;2023-09-19T14:16:55;0.70;;;0.40;;
315;SDS011;14128;48.686;9.738;2023-09-19T14:19:22;1.27;;;0.57;;
315;SDS011;14128;48.686;9.738;2023-09-19T14:21:50;3.50;;;0.73;;
315;SDS011;14128;48.686;9.738;2023-09-19T14:24:20;5.60;;;0.67;;
315;SDS011;14128;48.686;9.738;2023-09-19T14:26:47;2.63;;;0.63;;
315;SDS011;14128;48.686;9.738;2023-09-19T14:29:15;6.30;;;0.90;;
315;SDS011;14128;48.686;9.738;2023-09-19T14:31:43;1.17;;;0.77;;
315;SDS011;14128;48.686;9.738;2023-09-19T14:34:09;0.83;;;0.73;;
315;SDS011;14128;48.686;9.738;2023-09-19T14:36:36;1.83;;;0.80;;
315;SDS011;14128;48.686;9.738;2023-09-19T14:39:05;2.37;;;0.60;;
315;SDS011;14128;48.686;9.738;2023-09-19T14:41:33;2.53;;;0.70;;
315;SDS011;14128;48.686;9.738;2023-09-19T14:44:01;1.17;;;0.63;;
315;SDS011;14128;48.686;9.738;2023-09-19T14:46:28;0.73;;;0.50;;
315;SDS011;14128;48.686;9.738;2023-09-19T14:48:55;0.73;;;0.50;;
315;SDS011;14128;48.686;9.738;2023-09-19T14:51:24;0.53;;;0.30;;
315;SDS011;14128;48.686;9.738;2023-09-19T14:53:52;1.90;;;0.50;;
315;SDS011;14128;48.686;9.738;2023-09-19T14:56:20;1.90;;;1.07;;
315;SDS011;14128;48.686;9.738;2023-09-19T14:58:49;2.63;;;0.60;;
315;SDS011;14128;48.686;9.738;2023-09-19T15:01:15;0.70;;;0.40;;
315;SDS011;14128;48.686;9.738;2023-09-19T15:03:42;1.40;;;0.60;;
315;SDS011;14128;48.686;9.738;2023-09-19T15:06:11;4.30;;;0.97;;
315;SDS011;14128;48.686;9.738;2023-09-19T15:08:39;1.57;;;0.70;;
315;SDS011;14128;48.686;9.738;2023-09-19T15:11:11;1.47;;;0.80;;
315;SDS011;14128;48.686;9.738;2023-09-19T15:13:39;1.53;;;0.60;;
315;SDS011;14128;48.686;9.738;2023-09-19T15:16:07;3.17;;;0.70;;
315;SDS011;14128;48.686;9.738;2023-09-19T15:18:35;0.80;;;0.40;;
315;SDS011;14128;48.686;9.738;2023-09-19T15:21:03;4.37;;;1.17;;
315;SDS011;14128;48.686;9.738;2023-09-19T15:23:30;1.27;;;0.73;;
315;SDS011;14128;48.686;9.738;2023-09-19T15:25:57;1.33;;;0.80;;
315;SDS011;14128;48.686;9.738;2023-09-19T15:28:24;2.10;;;0.80;;
315;SDS011;14128;48.686;9.738;2023-09-19T15:30:58;2.00;;;0.90;;
315;SDS011;14128;48.686;9.738;2023-09-19T15:33:25;1.30;;;0.70;;
315;SDS011;14128;48.686;9.738;2023-09-19T15:35:59;2.23;;;0.90;;
315;SDS011;14128;48.686;9.738;2023-09-19T15:38:28;1.93;;;1.10;;
315;SDS011;14128;48.686;9.738;2023-09-19T15:40:56;1.10;;;0.77;;
315;SDS011;14128;48.686;9.738;2023-09-19T15:43:24;1.00;;;0.60;;
315;SDS011;14128;48.686;9.738;2023-09-19T15:45:51;2.10;;;0.60;;
315;SDS011;14128;48.686;9.738;2023-09-19T15:48:19;2.20;;;0.50;;
315;SDS011;14128;48.686;9.738;2023-09-19T15:50:46;1.20;;;0.70;;
315;SDS011;14128;48.686;9.738;2023-09-19T15:53:13;1.57;;;0.83;;